Time;durP1;ratioP1;P1;durP2;ratioP2;P2;SDS_P1;SDS_P2;PMS_P1;PMS_P2;Temp;Humidity;BMP_temperature;BMP_pressure;BME280_temperature;BME280_humidity;BME280_pressure;Samples;Min_cycle;Max_cycle;Signal;HPM_P1;HPM_P2
2022/03/20 00:00:30;;;;;;;38.88;18.52;;;7.80;42.70;;;;;;5071873;28;20093;-81
2022/03/20 00:02:56;;;;;;;30.33;15.25;;;7.00;43.40;;;;;;5073163;28;20025;-81
2022/03/20 00:05:22;;;;;;;31.48;15.75;;;6.90;41.90;;;;;;5072098;28;20028;-81
2022/03/20 00:07:48;;;;;;;29.83;14.93;;;6.90;43.00;;;;;;5073084;28;20021;-81
2022/03/20 00:10:14;;;;;;;30.63;14.98;;;6.70;44.00;;;;;;5072151;28;20059;-81
2022/03/20 00:12:41;;;;;;;30.73;15.00;;;7.00;44.50;;;;;;5072029;28;20384;-80
2022/03/20 00:15:07;;;;;;;29.30;14.27;;;7.10;45.30;;;;;;5072130;28;20467;-81
2022/03/20 00:17:33;;;;;;;25.48;12.75;;;7.10;43.40;;;;;;5072137;28;20479;-82
2022/03/20 00:19:59;;;;;;;29.55;13.18;;;7.20;42.60;;;;;;5073380;28;20414;-80
2022/03/20 00:22:26;;;;;;;24.80;13.40;;;7.00;41.50;;;;;;5071626;28;20082;-81
2022/03/20 00:24:52;;;;;;;26.27;13.73;;;7.50;42.00;;;;;;5071566;28;20021;-81
2022/03/20 00:27:17;;;;;;;30.10;14.90;;;7.60;41.40;;;;;;5072963;28;20028;-81
2022/03/20 00:29:44;;;;;;;25.02;13.35;;;7.50;42.60;;;;;;5071574;28;20017;-80
2022/03/20 00:32:11;;;;;;;21.30;12.68;;;7.70;41.70;;;;;;5071600;28;20094;-80
2022/03/20 00:34:38;;;;;;;22.52;12.25;;;7.50;42.70;;;;;;5072877;28;20028;-83
2022/03/20 00:37:05;;;;;;;25.67;13.90;;;8.00;43.20;;;;;;5074758;28;20020;-82
2022/03/20 00:39:31;;;;;;;25.65;13.75;;;8.10;42.80;;;;;;5075573;28;20158;-82
2022/03/20 00:41:57;;;;;;;30.90;14.95;;;7.90;43.90;;;;;;5076379;28;20067;-81
2022/03/20 00:44:23;;;;;;;31.38;14.27;;;7.70;42.40;;;;;;5076945;28;20048;-82
2022/03/20 00:46:49;;;;;;;29.00;14.40;;;7.40;43.10;;;;;;5075550;28;20383;-80
2022/03/20 00:49:15;;;;;;;24.67;13.05;;;7.30;43.20;;;;;;5076718;28;20099;-81
2022/03/20 00:51:42;;;;;;;23.98;12.63;;;7.60;42.80;;;;;;5076139;28;20102;-80
2022/03/20 00:54:08;;;;;;;26.33;13.73;;;7.60;42.80;;;;;;5075330;28;20052;-82
2022/03/20 00:56:34;;;;;;;25.40;13.10;;;7.50;42.60;;;;;;5075194;28;20505;-81
2022/03/20 00:59:00;;;;;;;28.10;14.10;;;7.00;43.30;;;;;;5075246;28;20115;-83
2022/03/20 01:01:28;;;;;;;26.52;13.73;;;7.00;43.50;;;;;;5075273;28;20032;-81
2022/03/20 01:03:54;;;;;;;25.52;13.05;;;7.10;43.60;;;;;;5075524;28;20017;-81
2022/03/20 01:06:22;;;;;;;22.05;12.27;;;6.90;43.20;;;;;;5075488;28;20024;-81
2022/03/20 01:08:49;;;;;;;24.38;12.93;;;6.50;43.30;;;;;;5075411;28;20031;-82
2022/03/20 01:11:16;;;;;;;22.15;11.88;;;6.80;43.30;;;;;;5074866;28;20067;-81
2022/03/20 01:13:43;;;;;;;20.20;11.70;;;7.10;42.90;;;;;;5075355;28;20051;-83
2022/03/20 01:16:08;;;;;;;28.60;12.23;;;6.90;41.50;;;;;;5075081;28;20035;-81
2022/03/20 01:18:35;;;;;;;23.17;11.50;;;6.10;43.70;;;;;;5075191;28;20024;-81
2022/03/20 01:21:00;;;;;;;23.48;13.23;;;5.90;44.70;;;;;;5074777;28;20016;-80
2022/03/20 01:23:26;;;;;;;22.33;11.60;;;6.00;44.50;;;;;;5076168;28;20034;-81
2022/03/20 01:25:52;;;;;;;23.13;12.15;;;6.30;44.20;;;;;;5074810;28;20058;-81
2022/03/20 01:28:19;;;;;;;25.20;13.10;;;6.50;43.70;;;;;;5074972;28;20024;-81
2022/03/20 01:30:47;;;;;;;23.52;13.02;;;6.90;43.00;;;;;;5074646;28;20032;-82
2022/03/20 01:33:14;;;;;;;22.48;12.70;;;7.20;42.20;;;;;;5074635;28;20039;-83
2022/03/20 01:35:40;;;;;;;29.15;14.77;;;7.40;41.90;;;;;;5075814;28;20100;-82
2022/03/20 01:38:06;;;;;;;28.92;14.48;;;7.20;42.20;;;;;;5074842;28;20028;-82
2022/03/20 01:40:32;;;;;;;24.08;12.52;;;7.00;42.00;;;;;;5074639;28;20033;-83
2022/03/20 01:42:58;;;;;;;29.70;14.48;;;7.20;42.30;;;;;;5075767;28;20095;-82
2022/03/20 01:45:24;;;;;;;32.70;16.52;;;7.10;42.10;;;;;;5075874;28;20024;-82
2022/03/20 01:47:51;;;;;;;28.83;14.52;;;7.00;41.90;;;;;;5074238;28;20426;-81
2022/03/20 01:50:25;;;;;;;27.73;13.90;;;7.00;42.20;;;;;;5075671;28;20408;-81
2022/03/20 01:52:53;;;;;;;27.70;13.13;;;6.90;42.30;;;;;;5054416;28;20175;-81
2022/03/20 01:55:21;;;;;;;26.35;14.02;;;6.80;42.80;;;;;;5054482;28;20029;-81
2022/03/20 01:57:47;;;;;;;26.90;14.52;;;6.60;42.80;;;;;;5055246;28;20094;-81
2022/03/20 02:00:16;;;;;;;29.27;14.68;;;6.50;43.10;;;;;;5054495;28;20025;-82
2022/03/20 02:02:41;;;;;;;30.67;16.88;;;6.50;43.30;;;;;;5074245;28;20020;-81
2022/03/20 02:05:09;;;;;;;31.75;15.02;;;6.20;43.50;;;;;;5074387;28;20382;-81
2022/03/20 02:07:36;;;;;;;29.42;15.60;;;6.00;43.90;;;;;;5075765;28;20024;-84
2022/03/20 02:10:11;;;;;;;28.42;15.23;;;5.60;44.90;;;;;;5075200;28;20108;-84
2022/03/20 02:12:38;;;;;;;26.63;14.90;;;5.30;45.10;;;;;;5075854;28;20032;-86
2022/03/20 02:15:06;;;;;;;26.83;13.95;;;5.10;45.60;;;;;;5074583;28;20031;-85
2022/03/20 02:17:32;;;;;;;29.65;13.85;;;5.20;45.70;;;;;;5075644;28;20571;-86
2022/03/20 02:20:01;;;;;;;25.80;13.45;;;5.10;45.40;;;;;;5074262;28;20142;-85
2022/03/20 02:22:27;;;;;;;24.73;12.95;;;5.00;45.40;;;;;;5073998;28;20060;-85
2022/03/20 02:24:53;;;;;;;26.83;13.68;;;5.10;44.60;;;;;;5074009;28;20112;-82
2022/03/20 02:27:27;;;;;;;23.63;12.68;;;5.60;44.00;;;;;;5070354;28;20033;-82
2022/03/20 02:29:55;;;;;;;25.27;14.27;;;5.90;43.60;;;;;;5055306;28;20392;-82
2022/03/20 02:32:29;;;;;;;25.10;12.68;;;6.00;43.50;;;;;;5055107;28;20028;-83
2022/03/20 02:35:01;;;;;;;21.65;12.18;;;5.80;43.40;;;;;;5066040;28;20442;-84
2022/03/20 02:37:28;;;;;;;23.55;13.68;;;5.60;43.80;;;;;;5070569;28;20020;-85
2022/03/20 02:39:59;;;;;;;23.02;11.60;;;5.70;43.70;;;;;;5070550;28;20060;-84
2022/03/20 02:42:26;;;;;;;24.40;12.35;;;5.60;43.50;;;;;;5070500;28;20028;-81
2022/03/20 02:45:03;;;;;;;22.50;11.73;;;5.70;43.20;;;;;;5063640;28;20020;-82
2022/03/20 02:47:31;;;;;;;22.02;12.20;;;5.70;43.10;;;;;;5073579;28;20059;-82
2022/03/20 02:50:05;;;;;;;22.52;11.57;;;5.70;42.90;;;;;;5073491;28;20071;-84
2022/03/20 02:52:41;;;;;;;20.77;11.32;;;5.70;43.20;;;;;;5073519;28;20384;-82
2022/03/20 02:55:08;;;;;;;20.92;10.98;;;5.80;43.40;;;;;;5073330;28;20017;-85
2022/03/20 02:57:34;;;;;;;21.35;10.65;;;5.80;42.40;;;;;;5073520;28;20498;-83
2022/03/20 03:00:02;;;;;;;21.88;10.88;;;5.90;42.50;;;;;;5072727;28;20052;-84
2022/03/20 03:02:30;;;;;;;20.27;10.90;;;6.00;42.10;;;;;;5074500;28;20475;-83
2022/03/20 03:04:58;;;;;;;18.42;10.00;;;6.10;42.10;;;;;;5074695;28;20104;-82
2022/03/20 03:07:25;;;;;;;17.90;10.48;;;6.40;41.10;;;;;;5073390;28;20077;-82
2022/03/20 03:12:35;;;;;;;21.08;12.10;;;6.60;41.30;;;;;;5074830;28;20043;-82
2022/03/20 03:15:19;;;;;;;17.80;11.27;;;6.30;41.30;;;;;;5074659;28;20021;-83
2022/03/20 03:17:46;;;;;;;17.05;10.38;;;5.80;41.50;;;;;;5073313;28;20028;-83
2022/03/20 03:20:12;;;;;;;18.38;10.52;;;5.70;42.30;;;;;;5073346;28;20060;-82
2022/03/20 03:22:38;;;;;;;19.40;11.40;;;6.10;41.90;;;;;;5073009;28;20074;-83
2022/03/20 03:25:05;;;;;;;20.10;10.25;;;6.30;41.30;;;;;;5073362;28;20025;-85
2022/03/20 03:27:31;;;;;;;19.02;9.98;;;6.10;41.60;;;;;;5072972;28;20028;-83
2022/03/20 03:29:56;;;;;;;18.67;10.05;;;6.00;42.40;;;;;;5074274;28;20032;-82
2022/03/20 03:32:22;;;;;;;20.63;10.40;;;6.10;42.00;;;;;;5073023;28;20123;-83
2022/03/20 03:37:32;;;;;;;17.63;10.48;;;6.30;41.70;;;;;;5074433;28;20513;-82
2022/03/20 03:40:01;;;;;;;18.83;10.20;;;6.30;41.60;;;;;;5073046;28;20116;-83
2022/03/20 03:42:27;;;;;;;17.83;9.75;;;6.30;41.70;;;;;;5074258;28;20029;-82
2022/03/20 03:44:54;;;;;;;16.65;9.73;;;6.20;41.70;;;;;;5073827;28;20021;-86
2022/03/20 03:47:20;;;;;;;18.05;9.70;;;6.20;41.80;;;;;;5073865;28;20024;-84
2022/03/20 03:49:45;;;;;;;17.70;10.20;;;6.30;41.70;;;;;;5071279;28;20146;-84
2022/03/20 03:52:11;;;;;;;18.27;10.10;;;6.40;41.60;;;;;;5055650;28;20032;-85
2022/03/20 03:54:37;;;;;;;28.60;12.88;;;6.50;41.80;;;;;;5072610;28;20074;-86
2022/03/20 03:57:03;;;;;;;30.77;15.30;;;6.60;41.60;;;;;;5071265;28;20521;-85
2022/03/20 03:59:29;;;;;;;20.83;11.52;;;6.70;40.80;;;;;;5035300;28;20021;-85
2022/03/20 04:02:00;;;;;;;18.90;10.93;;;6.60;40.70;;;;;;5039794;28;20046;-85
2022/03/20 04:04:27;;;;;;;21.17;11.52;;;6.90;40.70;;;;;;5072268;28;20037;-86
2022/03/20 04:06:59;;;;;;;22.85;10.77;;;7.10;40.50;;;;;;5072277;28;20082;-86
2022/03/20 04:09:25;;;;;;;24.02;11.57;;;7.20;40.50;;;;;;5072003;28;20033;-86
2022/03/20 04:11:52;;;;;;;20.13;11.38;;;7.30;40.20;;;;;;5073263;28;20090;-86
2022/03/20 04:14:17;;;;;;;20.00;10.15;;;7.30;39.90;;;;;;5059400;28;20166;-85
2022/03/20 04:16:43;;;;;;;20.17;10.02;;;7.30;39.80;;;;;;5076162;28;20032;-86
2022/03/20 04:19:10;;;;;;;22.52;10.63;;;7.40;39.80;;;;;;5042772;28;20025;-87
2022/03/20 04:21:36;;;;;;;21.90;11.65;;;7.50;39.40;;;;;;5039499;28;20593;-85
2022/03/20 04:24:20;;;;;;;20.17;10.20;;;7.10;39.90;;;;;;5039313;28;20025;-86
2022/03/20 04:26:46;;;;;;;18.10;10.02;;;6.80;40.20;;;;;;5063053;28;20051;-85
2022/03/20 04:29:12;;;;;;;19.85;10.60;;;6.60;40.70;;;;;;5076591;28;20016;-85
2022/03/20 04:31:38;;;;;;;18.75;10.35;;;6.70;41.10;;;;;;5076829;28;20036;-85
2022/03/20 04:34:04;;;;;;;20.23;11.10;;;6.70;40.70;;;;;;5076572;28;20031;-84
2022/03/20 04:36:30;;;;;;;17.85;10.50;;;6.60;41.10;;;;;;5076658;28;20028;-85
2022/03/20 04:38:59;;;;;;;20.52;11.07;;;6.30;41.20;;;;;;5076261;28;20036;-85
2022/03/20 04:41:25;;;;;;;20.73;11.18;;;5.90;41.50;;;;;;5076578;28;20048;-85
2022/03/20 04:43:52;;;;;;;21.08;10.85;;;5.60;42.00;;;;;;5076222;28;20029;-84
2022/03/20 04:46:19;;;;;;;20.45;10.63;;;5.70;42.10;;;;;;5076368;28;20083;-83
2022/03/20 04:59:42;;;;;;;19.63;11.50;;;6.10;42.30;;;;;;5057351;28;20490;-85
2022/03/20 05:02:08;;;;;;;22.45;11.10;;;6.10;42.20;;;;;;5074882;28;20020;-83
2022/03/20 05:04:34;;;;;;;21.25;12.02;;;5.90;42.10;;;;;;5077010;28;20471;-84
2022/03/20 05:06:59;;;;;;;21.58;12.07;;;5.70;43.00;;;;;;5075782;28;20028;-84
2022/03/20 05:14:59;;;;;;;22.08;11.55;;;6.30;42.00;;;;;;5055808;28;20581;-83
2022/03/20 05:17:25;;;;;;;21.35;11.60;;;6.50;41.90;;;;;;5038028;28;20039;-82
2022/03/20 05:19:51;;;;;;;19.65;11.60;;;6.70;41.80;;;;;;5037635;28;20021;-83
2022/03/20 05:22:16;;;;;;;25.00;12.70;;;6.80;42.10;;;;;;5037062;28;20059;-82
2022/03/20 05:24:43;;;;;;;23.20;12.48;;;6.80;42.00;;;;;;5054419;28;20021;-82
2022/03/20 05:27:08;;;;;;;23.60;12.65;;;7.00;41.80;;;;;;5054539;28;20110;-83
2022/03/20 05:29:35;;;;;;;26.92;14.02;;;7.20;41.30;;;;;;5037452;28;20025;-83
2022/03/20 05:32:02;;;;;;;23.20;12.60;;;7.40;41.80;;;;;;5037463;28;20037;-82
2022/03/20 05:34:28;;;;;;;23.25;13.52;;;7.70;41.30;;;;;;5037762;28;20440;-82
2022/03/20 05:36:56;;;;;;;23.35;12.40;;;7.60;41.30;;;;;;5037561;28;20484;-83
2022/03/20 05:39:22;;;;;;;22.13;11.95;;;7.10;40.50;;;;;;5054605;28;20028;-81
2022/03/20 05:41:49;;;;;;;22.33;12.02;;;6.60;42.20;;;;;;5057187;28;20103;-82
2022/03/20 05:44:29;;;;;;;22.73;12.48;;;6.90;41.70;;;;;;5057414;28;20029;-82
2022/03/20 05:46:57;;;;;;;20.67;12.20;;;7.20;42.10;;;;;;5057210;28;20025;-82
2022/03/20 05:49:24;;;;;;;20.08;11.57;;;7.20;42.10;;;;;;5065086;28;20093;-82
2022/03/20 05:51:51;;;;;;;22.65;12.82;;;7.40;42.20;;;;;;5074511;28;20554;-82
2022/03/20 05:54:17;;;;;;;22.95;12.80;;;7.40;41.30;;;;;;5075518;28;20029;-81
2022/03/20 05:59:41;;;;;;;19.17;11.32;;;7.60;40.90;;;;;;5056547;28;20064;-80
2022/03/20 06:02:09;;;;;;;21.23;11.82;;;7.80;41.00;;;;;;5052531;28;20064;-81
2022/03/20 06:04:35;;;;;;;19.10;11.15;;;7.90;40.90;;;;;;5073268;28;20400;-81
2022/03/20 06:07:01;;;;;;;20.20;11.80;;;7.80;40.60;;;;;;5073230;28;20064;-81
2022/03/20 06:09:27;;;;;;;19.25;11.90;;;8.00;40.90;;;;;;5056759;28;20441;-81
2022/03/20 06:11:53;;;;;;;20.30;11.40;;;8.00;39.80;;;;;;5068218;28;20036;-81
2022/03/20 06:14:19;;;;;;;22.83;12.32;;;8.00;40.20;;;;;;5057837;28;20463;-79
2022/03/20 06:16:48;;;;;;;19.80;11.70;;;8.20;40.40;;;;;;5052710;28;20068;-80
2022/03/20 06:19:15;;;;;;;19.90;11.82;;;8.40;40.00;;;;;;5052722;28;20052;-80
2022/03/20 06:21:42;;;;;;;22.35;13.32;;;8.50;40.10;;;;;;5051865;28;20037;-79
2022/03/20 06:24:08;;;;;;;28.00;12.63;;;8.70;39.90;;;;;;5034892;28;20025;-79
2022/03/20 06:26:34;;;;;;;21.23;12.75;;;8.60;40.00;;;;;;5051280;28;20025;-78
2022/03/20 06:29:01;;;;;;;19.08;11.55;;;8.70;40.00;;;;;;5051290;28;20040;-79
2022/03/20 06:31:26;;;;;;;23.60;13.68;;;8.80;40.50;;;;;;5031177;28;20072;-78
2022/03/20 06:33:54;;;;;;;21.35;11.80;;;8.80;40.10;;;;;;5031824;28;20025;-77
2022/03/20 06:36:19;;;;;;;24.92;14.38;;;9.10;40.50;;;;;;5051501;28;20048;-79
2022/03/20 06:38:45;;;;;;;24.73;14.02;;;9.20;39.50;;;;;;5052912;28;20032;-78
2022/03/20 06:41:11;;;;;;;27.25;14.88;;;9.30;39.40;;;;;;5070778;28;20025;-78
2022/03/20 06:44:33;;;;;;;28.48;14.85;;;8.50;39.90;;;;;;5084148;27;1364416;-77
2022/03/20 06:46:59;;;;;;;23.88;14.60;;;8.20;40.30;;;;;;5090327;28;20032;-79
2022/03/20 06:49:28;;;;;;;24.75;14.68;;;8.20;39.90;;;;;;5081339;28;20425;-78
2022/03/20 06:51:54;;;;;;;24.40;14.63;;;8.00;40.70;;;;;;5087998;28;20021;-78
2022/03/20 06:54:20;;;;;;;23.23;13.70;;;7.70;40.70;;;;;;5090467;28;20074;-79
2022/03/20 06:56:45;;;;;;;26.73;15.45;;;7.80;41.00;;;;;;5072675;28;20024;-78
2022/03/20 06:59:14;;;;;;;26.08;14.55;;;8.40;40.40;;;;;;5089988;28;20036;-77
2022/03/20 07:01:39;;;;;;;22.20;13.65;;;8.50;40.60;;;;;;5077242;28;20103;-79
2022/03/20 07:04:05;;;;;;;23.85;14.02;;;8.70;40.10;;;;;;5094916;28;20115;-79
2022/03/20 07:06:31;;;;;;;20.98;13.57;;;8.70;39.40;;;;;;5062359;28;20052;-76
2022/03/20 07:09:00;;;;;;;22.48;13.55;;;8.70;39.30;;;;;;5052048;28;20071;-78
2022/03/20 07:11:32;;;;;;;22.42;14.63;;;8.80;39.70;;;;;;5052240;28;20040;-80
2022/03/20 07:13:58;;;;;;;21.10;13.55;;;9.30;39.20;;;;;;5056209;28;20398;-79
2022/03/20 07:16:29;;;;;;;24.42;15.13;;;9.30;39.30;;;;;;5089753;28;20028;-80
2022/03/20 07:18:55;;;;;;;22.83;15.02;;;9.80;38.90;;;;;;5071486;28;20080;-81
2022/03/20 07:21:22;;;;;;;23.38;13.45;;;9.90;38.30;;;;;;5071586;28;20111;-78
2022/03/20 07:23:48;;;;;;;27.20;16.65;;;9.10;39.10;;;;;;5071078;28;20429;-78
2022/03/20 07:31:41;;;;;;;32.05;17.25;;;9.10;39.70;;;;;;5089641;28;20035;-78
2022/03/20 07:34:07;;;;;;;24.20;15.82;;;9.00;39.80;;;;;;5087947;28;20029;-77
2022/03/20 07:36:33;;;;;;;25.08;14.13;;;8.90;39.80;;;;;;5088668;28;20047;-78
2022/03/20 07:38:59;;;;;;;23.85;13.38;;;8.90;39.70;;;;;;5071370;28;20031;-77
2022/03/20 07:41:24;;;;;;;24.33;13.57;;;9.20;39.60;;;;;;5070823;28;20028;-80
2022/03/20 07:43:50;;;;;;;19.38;12.68;;;8.80;39.80;;;;;;5070336;28;20376;-81
2022/03/20 07:46:16;;;;;;;22.60;13.05;;;8.30;40.50;;;;;;5070332;28;20027;-82
2022/03/20 07:50:23;;;;;;;21.73;12.85;;;8.90;39.80;;;;;;5075767;27;1513553;-79
2022/03/20 07:52:50;;;;;;;22.00;12.73;;;9.70;39.10;;;;;;5092569;28;20024;-78
2022/03/20 07:55:17;;;;;;;25.08;14.75;;;11.10;38.20;;;;;;5075804;28;20054;-80
2022/03/20 07:57:44;;;;;;;32.05;17.00;;;12.10;36.60;;;;;;5092027;28;20404;-80
2022/03/20 08:00:11;;;;;;;36.22;19.00;;;12.80;36.10;;;;;;5104506;28;20120;-78
2022/03/20 08:02:37;;;;;;;35.97;18.73;;;13.10;34.80;;;;;;4722130;28;9999735;-78
2022/03/20 08:05:03;;;;;;;43.67;20.33;;;13.50;35.20;;;;;;5070128;28;20360;-80
2022/03/20 08:07:35;;;;;;;28.48;14.52;;;13.40;35.10;;;;;;5052220;28;20025;-78
2022/03/20 08:10:08;;;;;;;25.30;13.43;;;13.80;34.80;;;;;;5050076;28;20045;-83
2022/03/20 08:12:34;;;;;;;24.33;13.50;;;14.20;34.20;;;;;;5050830;28;20028;-78
2022/03/20 08:15:01;;;;;;;18.00;12.27;;;14.10;34.00;;;;;;5069197;28;20107;-78
2022/03/20 08:17:28;;;;;;;26.17;13.77;;;13.50;34.30;;;;;;5049865;28;20028;-80
2022/03/20 08:19:54;;;;;;;32.60;14.10;;;13.80;35.10;;;;;;5050763;28;20086;-78
2022/03/20 08:22:20;;;;;;;29.38;15.32;;;15.10;34.00;;;;;;5064765;28;20032;-78
2022/03/20 08:24:48;;;;;;;26.02;13.65;;;15.40;33.50;;;;;;5086771;28;20028;-78
2022/03/20 08:27:14;;;;;;;21.58;12.77;;;15.70;33.00;;;;;;5071963;28;20016;-77
2022/03/20 08:29:40;;;;;;;20.13;11.75;;;15.30;33.80;;;;;;5080321;28;20395;-79
2022/03/20 08:32:07;;;;;;;20.60;12.60;;;15.80;33.70;;;;;;5049954;28;20081;-80
2022/03/20 08:34:33;;;;;;;20.92;14.20;;;16.40;32.00;;;;;;5049644;28;20480;-78
2022/03/20 08:36:58;;;;;;;20.23;12.35;;;16.60;32.30;;;;;;5065397;28;20021;-78
2022/03/20 08:39:24;;;;;;;18.88;11.88;;;15.80;32.50;;;;;;5064639;28;20062;-78
2022/03/20 08:41:50;;;;;;;19.05;12.40;;;14.80;33.00;;;;;;5062535;28;20166;-77
2022/03/20 08:44:16;;;;;;;16.90;11.68;;;14.00;34.10;;;;;;5065976;28;20036;-82
2022/03/20 08:46:41;;;;;;;22.02;12.98;;;13.80;34.20;;;;;;5056104;28;20077;-82
2022/03/20 08:49:08;;;;;;;19.70;12.38;;;12.90;35.20;;;;;;5077243;28;20088;-82
2022/03/20 08:51:35;;;;;;;18.88;12.27;;;13.20;35.40;;;;;;5067799;28;20024;-83
2022/03/20 08:54:05;;;;;;;19.48;12.13;;;13.70;34.40;;;;;;5081505;28;20021;-81
2022/03/20 08:56:31;;;;;;;19.27;13.10;;;14.20;34.10;;;;;;5063836;28;20024;-81
2022/03/20 08:58:57;;;;;;;18.77;11.50;;;14.20;33.90;;;;;;5086205;28;20391;-82
2022/03/20 09:01:23;;;;;;;18.88;12.13;;;14.50;34.00;;;;;;5053214;28;20048;-83
2022/03/20 09:03:52;;;;;;;19.58;11.88;;;14.20;34.00;;;;;;5057089;28;20035;-80
2022/03/20 09:06:21;;;;;;;18.05;12.10;;;13.40;35.00;;;;;;5046242;28;20055;-83
2022/03/20 09:08:47;;;;;;;19.88;12.07;;;14.10;35.00;;;;;;5046358;28;20039;-83
2022/03/20 09:11:13;;;;;;;21.75;11.88;;;15.30;33.30;;;;;;5059450;28;20025;-86
2022/03/20 09:13:39;;;;;;;17.40;11.77;;;15.90;33.30;;;;;;5040997;28;20025;-85
2022/03/20 09:18:59;;;;;;;20.05;11.65;;;14.20;34.40;;;;;;5055733;28;20498;-83
2022/03/20 09:21:29;;;;;;;16.58;11.43;;;16.30;33.30;;;;;;5037879;28;20061;-82
2022/03/20 09:23:55;;;;;;;15.80;11.23;;;17.70;31.40;;;;;;5055449;28;20064;-82
2022/03/20 09:26:21;;;;;;;18.42;11.60;;;18.20;31.20;;;;;;5037086;28;20119;-81
2022/03/20 09:28:47;;;;;;;16.67;10.88;;;19.10;31.10;;;;;;5036533;28;20450;-80
2022/03/20 09:31:13;;;;;;;15.20;11.02;;;19.50;30.20;;;;;;5054577;28;20029;-82
2022/03/20 09:33:40;;;;;;;18.70;11.43;;;19.50;30.50;;;;;;5037307;28;20113;-80
2022/03/20 09:36:06;;;;;;;17.80;10.95;;;20.10;29.90;;;;;;5044237;28;20487;-82
2022/03/20 09:38:33;;;;;;;16.00;11.52;;;19.70;30.60;;;;;;5056308;28;20217;-84
2022/03/20 09:41:03;;;;;;;20.00;11.63;;;19.70;30.00;;;;;;5053516;28;20391;-82
2022/03/20 09:43:31;;;;;;;;;;;19.30;30.70;;;;;;5056342;28;20025;-80
2022/03/20 09:45:58;;;;;;;14.80;11.05;;;18.10;30.80;;;;;;5074153;28;19904;-79
2022/03/20 09:48:26;;;;;;;14.68;10.73;;;18.00;31.20;;;;;;5056971;28;20037;-82
2022/03/20 09:50:53;;;;;;;17.27;11.40;;;18.70;30.30;;;;;;5056776;28;20048;-84
2022/03/20 09:53:21;;;;;;;15.55;10.80;;;19.30;30.30;;;;;;5056682;28;20109;-82
2022/03/20 09:55:47;;;;;;;18.88;11.00;;;19.00;30.20;;;;;;5056051;28;20016;-81
2022/03/20 09:58:13;;;;;;;18.77;10.75;;;18.90;29.90;;;;;;5074192;28;20031;-83
2022/03/20 10:00:39;;;;;;;16.02;11.07;;;18.60;30.00;;;;;;5056106;28;20028;-82
2022/03/20 10:03:20;;;;;;;17.05;11.07;;;18.60;30.50;;;;;;5056181;28;20037;-82
2022/03/20 10:06:15;;;;;;;17.48;10.85;;;19.30;30.20;;;;;;5055204;28;20020;-81
2022/03/20 10:09:13;;;;;;;18.70;11.70;;;19.10;29.50;;;;;;5055390;28;20513;-78
2022/03/20 10:11:48;;;;;;;15.80;11.15;;;20.00;29.90;;;;;;4969831;28;20561;-81
2022/03/20 10:14:22;;;;;;;16.95;11.25;;;19.20;29.80;;;;;;4976712;28;20037;-81
2022/03/20 10:17:16;;;;;;;14.40;11.05;;;20.00;29.90;;;;;;4991530;28;20048;-82
2022/03/20 10:19:43;;;;;;;17.58;10.73;;;19.10;29.50;;;;;;4976198;28;20027;-81
2022/03/20 10:22:11;;;;;;;17.55;11.63;;;19.00;31.20;;;;;;4957400;28;20109;-82
2022/03/20 10:24:46;;;;;;;16.00;11.55;;;20.60;30.20;;;;;;4959069;28;20114;-79
2022/03/20 10:27:13;;;;;;;16.40;11.13;;;19.60;29.30;;;;;;4965497;28;20287;-82
2022/03/20 10:29:52;;;;;;;15.10;11.10;;;19.00;29.90;;;;;;4945502;28;20038;-83
2022/03/20 10:32:18;;;;;;;14.50;10.98;;;19.70;29.50;;;;;;4955053;28;20025;-86
2022/03/20 10:34:59;;;;;;;23.85;11.85;;;20.50;29.50;;;;;;4942029;28;20425;-83
2022/03/20 10:37:43;;;;;;;24.95;11.77;;;20.90;29.30;;;;;;4972216;28;20693;-82
2022/03/20 10:40:11;;;;;;;18.80;11.20;;;21.70;29.70;;;;;;4972283;28;20047;-82
2022/03/20 10:42:37;;;;;;;15.15;10.65;;;21.90;29.20;;;;;;4972047;28;20027;-84
2022/03/20 10:45:06;;;;;;;17.38;11.05;;;22.20;28.50;;;;;;4956343;28;20061;-81
2022/03/20 10:47:32;;;;;;;15.52;10.32;;;21.60;29.10;;;;;;5034786;28;20500;-84
2022/03/20 10:50:07;;;;;;;15.55;10.30;;;21.10;28.80;;;;;;5053480;28;20052;-83
2022/03/20 10:52:36;;;;;;;14.85;10.02;;;20.20;29.40;;;;;;5051230;28;20043;-82
2022/03/20 10:55:10;;;;;;;14.43;10.70;;;20.30;29.20;;;;;;5067280;28;20028;-84
2022/03/20 10:57:36;;;;;;;16.80;10.45;;;21.10;28.80;;;;;;5072951;28;20410;-83
2022/03/20 11:00:07;;;;;;;14.32;10.35;;;21.20;28.90;;;;;;5054939;28;20028;-83
2022/03/20 11:02:37;;;;;;;15.02;10.00;;;22.80;29.20;;;;;;5056103;28;20025;-81
2022/03/20 11:05:02;;;;;;;77.03;13.55;;;25.10;28.30;;;;;;5047535;28;20529;-82
2022/03/20 11:07:28;;;;;;;15.70;10.82;;;25.70;27.90;;;;;;5073395;28;20033;-83
2022/03/20 11:09:55;;;;;;;20.30;11.18;;;26.10;28.00;;;;;;5072629;28;20048;-83
2022/03/20 11:12:26;;;;;;;14.50;10.23;;;25.40;27.70;;;;;;5072949;28;20031;-82
2022/03/20 11:14:54;;;;;;;17.13;11.40;;;24.50;28.10;;;;;;5054401;28;20017;-82
2022/03/20 11:17:25;;;;;;;16.05;11.07;;;23.60;28.20;;;;;;5055311;28;20474;-84
2022/03/20 11:19:54;;;;;;;14.65;10.82;;;22.70;28.00;;;;;;5073117;28;20027;-81
2022/03/20 11:22:22;;;;;;;15.23;11.00;;;20.80;29.20;;;;;;5055047;28;20024;-82
2022/03/20 11:24:50;;;;;;;15.23;10.48;;;19.80;29.00;;;;;;5054752;28;20053;-81
2022/03/20 11:27:40;;;;;;;14.57;10.15;;;19.10;29.90;;;;;;5054755;28;20119;-81
2022/03/20 11:30:07;;;;;;;15.75;11.10;;;18.20;29.40;;;;;;5054408;28;20071;-81
2022/03/20 11:32:33;;;;;;;26.20;11.93;;;16.80;31.20;;;;;;5072863;28;20028;-81
2022/03/20 11:35:01;;;;;;;16.08;10.15;;;16.90;30.90;;;;;;5049725;28;20040;-81
2022/03/20 11:37:46;;;;;;;27.92;10.00;;;16.10;30.60;;;;;;5045773;28;20107;-80
2022/03/20 11:40:15;;;;;;;19.83;10.77;;;14.70;32.10;;;;;;5053160;28;20055;-81
2022/03/20 11:42:42;;;;;;;15.32;9.90;;;13.60;32.20;;;;;;5049170;28;20024;-80
2022/03/20 11:45:09;;;;;;;15.65;10.40;;;13.10;32.90;;;;;;5055233;28;20029;-80
2022/03/20 11:47:37;;;;;;;20.33;10.05;;;13.80;32.00;;;;;;5071986;28;20059;-81
2022/03/20 11:50:19;;;;;;;21.45;16.98;;;14.60;31.90;;;;;;5072167;28;20048;-82
2022/03/20 11:53:13;;;;;;;15.48;10.23;;;16.10;33.00;;;;;;5054309;28;20056;-81
2022/03/20 11:55:52;;;;;;;22.75;10.70;;;15.90;31.60;;;;;;5054974;28;20048;-81
2022/03/20 11:58:21;;;;;;;16.40;9.63;;;16.50;31.00;;;;;;5054524;28;20068;-80
2022/03/20 12:01:02;;;;;;;14.90;9.85;;;16.40;31.00;;;;;;5054791;28;20047;-82
2022/03/20 12:03:45;;;;;;;12.98;9.70;;;16.50;31.20;;;;;;5050287;28;20017;-82
2022/03/20 12:07:08;;;;;;;17.73;10.25;;;17.40;31.80;;;;;;5054811;28;20115;-83
2022/03/20 12:09:57;;;;;;;14.05;7.75;;;17.90;30.00;;;;;;4992178;28;20115;-81
2022/03/20 12:12:54;;;;;;;16.98;9.80;;;17.10;29.30;;;;;;4991234;28;20173;-83
2022/03/20 12:15:23;;;;;;;17.10;8.40;;;16.40;30.20;;;;;;4989186;28;20037;-82
2022/03/20 12:18:05;;;;;;;14.88;8.75;;;15.50;30.90;;;;;;4991639;28;20023;-81
2022/03/20 12:20:50;;;;;;;13.48;7.78;;;15.30;30.70;;;;;;4991656;28;20157;-83
2022/03/20 12:23:40;;;;;;;13.20;8.50;;;15.70;29.90;;;;;;4992176;28;20362;-81
2022/03/20 12:26:31;;;;;;;16.77;10.68;;;15.60;29.20;;;;;;4992062;28;20050;-78
2022/03/20 12:29:32;;;;;;;14.52;7.15;;;15.20;29.50;;;;;;4991891;28;20049;-81
2022/03/20 12:31:59;;;;;;;;;;;14.40;29.70;;;;;;5007455;28;20029;-80
2022/03/20 12:34:25;;;;;;;11.43;7.60;;;13.10;30.40;;;;;;4989417;28;19913;-84
2022/03/20 12:36:51;;;;;;;12.43;6.85;;;13.50;31.10;;;;;;5000079;28;20038;-84
2022/03/20 12:39:49;;;;;;;23.58;8.90;;;13.90;30.70;;;;;;5001530;28;20453;-85
2022/03/20 12:42:16;;;;;;;14.68;9.13;;;14.50;30.20;;;;;;5059282;28;20024;-80
2022/03/20 12:44:51;;;;;;;11.93;7.32;;;14.40;29.50;;;;;;5059436;28;20078;-84
2022/03/20 12:47:19;;;;;;;11.82;7.25;;;14.40;29.20;;;;;;5058844;28;20028;-85
2022/03/20 12:49:47;;;;;;;10.32;6.20;;;14.70;30.00;;;;;;5077043;28;20495;-78
2022/03/20 12:52:15;;;;;;;9.63;6.00;;;14.30;29.80;;;;;;5058794;28;20021;-81
2022/03/20 12:54:50;;;;;;;10.95;6.38;;;14.10;29.80;;;;;;5058283;28;20040;-86
2022/03/20 12:57:16;;;;;;;8.55;5.38;;;13.90;30.10;;;;;;5076061;28;20394;-82
2022/03/20 12:59:43;;;;;;;9.20;5.57;;;13.90;29.80;;;;;;5076292;28;20509;-79
2022/03/20 13:02:10;;;;;;;7.97;5.40;;;13.30;30.00;;;;;;5058154;28;20028;-79
2022/03/20 13:04:36;;;;;;;10.15;5.72;;;13.30;30.40;;;;;;5058343;28;20505;-80
2022/03/20 13:07:22;;;;;;;10.02;6.10;;;12.80;29.80;;;;;;5058221;28;20029;-83
2022/03/20 13:09:59;;;;;;;13.02;6.47;;;13.00;30.60;;;;;;5054432;28;20033;-83
2022/03/20 13:12:25;;;;;;;16.63;7.70;;;13.60;30.60;;;;;;5043454;28;20081;-82
2022/03/20 13:14:55;;;;;;;9.38;6.20;;;13.80;30.70;;;;;;5043563;28;20078;-81
2022/03/20 13:17:27;;;;;;;13.45;6.38;;;14.30;29.80;;;;;;5047226;28;20112;-78
2022/03/20 13:19:52;;;;;;;9.95;6.07;;;14.40;30.10;;;;;;5059024;28;20047;-79